Time;durP1;ratioP1;P1;durP2;ratioP2;P2;SDS_P1;SDS_P2;PMS_P1;PMS_P2;Temp;Humidity;BMP_temperature;BMP_pressure;BME280_temperature;BME280_humidity;BME280_pressure;Samples;Min_cycle;Max_cycle;Signal;HPM_P1;HPM_P2
2023/05/16 00:04:11;;;;;;;35.92;21.13;;;;;;;15.15;62.88;100067.50;10425778;28;20496;-75
2023/05/16 00:09:13;;;;;;;35.80;19.58;;;;;;;15.01;63.42;100068.59;10421763;28;20053;-73
2023/05/16 00:14:15;;;;;;;36.30;20.55;;;;;;;14.98;63.63;100059.00;10414260;28;20048;-73
2023/05/16 00:19:17;;;;;;;31.58;18.17;;;;;;;14.87;63.83;100057.78;10405492;28;20046;-72
2023/05/16 00:24:20;;;;;;;35.40;18.77;;;;;;;14.87;63.86;100065.06;10430137;28;20128;-75
2023/05/16 00:29:23;;;;;;;33.30;19.42;;;;;;;14.88;63.76;100064.84;10421158;28;20098;-74
2023/05/16 00:34:24;;;;;;;29.48;18.15;;;;;;;14.84;64.07;100069.00;10410751;28;20146;-73
2023/05/16 00:39:27;;;;;;;32.20;18.83;;;;;;;14.77;64.13;100065.50;10392973;28;20072;-73
2023/05/16 00:44:29;;;;;;;32.45;18.10;;;;;;;14.78;64.13;100060.91;10420412;28;20046;-72
2023/05/16 00:49:31;;;;;;;28.60;16.90;;;;;;;14.75;64.02;100067.59;10418408;28;20045;-76
2023/05/16 00:54:33;;;;;;;31.30;17.63;;;;;;;14.80;63.94;100075.06;10402685;28;20068;-72
2023/05/16 00:59:35;;;;;;;29.42;17.85;;;;;;;14.85;63.90;100075.28;10411751;28;20057;-70
2023/05/16 01:04:36;;;;;;;27.40;16.65;;;;;;;14.82;63.84;100076.50;10422862;28;20561;-71
2023/05/16 01:09:38;;;;;;;27.60;16.58;;;;;;;14.83;63.96;100071.91;10425351;28;20053;-71
2023/05/16 01:14:49;;;;;;;29.08;16.85;;;;;;;14.73;64.36;100077.78;10426530;28;20061;-71
2023/05/16 01:20:27;;;;;;;25.30;16.15;;;;;;;14.83;64.06;100069.22;10423497;28;20045;-71
2023/05/16 01:25:44;;;;;;;24.92;15.65;;;;;;;14.81;64.10;100072.16;10423178;28;20052;-71
2023/05/16 01:30:45;;;;;;;22.73;15.73;;;;;;;14.75;64.52;100074.84;10422638;28;20053;-69
2023/05/16 01:36:05;;;;;;;27.27;16.88;;;;;;;14.78;64.14;100075.28;10422806;28;20523;-71
2023/05/16 01:41:26;;;;;;;26.98;16.35;;;;;;;14.74;64.42;100073.22;10418562;28;20046;-71
2023/05/16 01:46:33;;;;;;;29.63;17.23;;;;;;;14.72;64.57;100075.28;10404256;28;20137;-70
2023/05/16 01:51:39;;;;;;;26.00;17.02;;;;;;;14.70;64.89;100066.56;10422156;28;20045;-72
2023/05/16 01:56:53;;;;;;;27.92;17.25;;;;;;;14.76;64.57;100076.53;10423061;28;20048;-71
2023/05/16 02:01:56;;;;;;;29.08;18.13;;;;;;;14.66;65.03;100071.53;10418688;28;20412;-71
2023/05/16 02:06:59;;;;;;;29.73;17.60;;;;;;;14.63;65.14;100072.81;10423039;28;20053;-71
2023/05/16 02:12:01;;;;;;;31.08;18.63;;;;;;;14.59;65.45;100074.28;10421782;28;20127;-70
2023/05/16 02:17:03;;;;;;;33.90;19.48;;;;;;;14.58;65.77;100080.72;10419608;28;20450;-72
2023/05/16 02:22:05;;;;;;;35.97;19.20;;;;;;;14.65;65.30;100076.13;10427006;28;20045;-71
2023/05/16 02:27:06;;;;;;;30.85;17.85;;;;;;;14.59;65.56;100074.28;10399361;28;20120;-71
2023/05/16 02:32:07;;;;;;;27.70;16.75;;;;;;;14.59;65.81;100093.19;10404446;28;20114;-70
2023/05/16 02:37:09;;;;;;;27.10;16.10;;;;;;;14.52;65.85;100075.28;10423493;28;20079;-70
2023/05/16 02:42:13;;;;;;;26.70;16.33;;;;;;;14.52;65.85;100086.09;10420758;28;20441;-70
2023/05/16 02:47:15;;;;;;;26.77;15.57;;;;;;;14.50;65.70;100088.19;10417046;28;20057;-71
2023/05/16 02:52:17;;;;;;;31.45;16.27;;;;;;;14.45;65.99;100088.78;10401354;28;20196;-71
2023/05/16 02:57:18;;;;;;;28.92;17.05;;;;;;;14.39;66.00;100089.63;10421073;28;20080;-71
2023/05/16 03:02:20;;;;;;;32.28;17.95;;;;;;;14.37;66.22;100095.22;10416823;28;20108;-71
2023/05/16 03:07:22;;;;;;;32.35;17.92;;;;;;;14.38;65.99;100101.50;10418045;28;20601;-71
2023/05/16 03:12:23;;;;;;;34.38;19.10;;;;;;;14.40;65.74;100097.53;10416863;28;20049;-71
2023/05/16 03:17:25;;;;;;;34.80;18.90;;;;;;;14.30;66.17;100091.72;10419469;28;20080;-72
2023/05/16 03:22:26;;;;;;;36.00;18.52;;;;;;;14.20;66.64;100094.00;10420311;28;20120;-72
2023/05/16 03:27:28;;;;;;;31.35;17.20;;;;;;;14.17;66.47;100097.91;10418580;28;20111;-71
2023/05/16 03:32:29;;;;;;;30.90;17.90;;;;;;;14.18;66.62;100085.22;10419338;28;20081;-70
2023/05/16 03:37:31;;;;;;;33.80;18.42;;;;;;;14.22;66.15;100098.13;10421087;28;20041;-73
2023/05/16 03:42:32;;;;;;;30.95;15.70;;;;;;;14.26;66.40;100102.09;10416140;28;20107;-73
2023/05/16 03:47:34;;;;;;;32.97;17.40;;;;;;;14.28;66.54;100104.59;10423046;28;20049;-74
2023/05/16 03:52:35;;;;;;;28.95;15.00;;;;;;;14.38;66.21;100118.53;10397131;28;20045;-74
2023/05/16 03:57:37;;;;;;;29.90;15.20;;;;;;;14.29;66.27;100114.34;10423181;28;20045;-73
2023/05/16 04:02:39;;;;;;;23.23;13.00;;;;;;;14.26;65.98;100117.50;10421854;28;20054;-74
2023/05/16 04:07:41;;;;;;;23.88;13.15;;;;;;;14.33;66.28;100121.03;10429142;28;20053;-73
2023/05/16 04:12:43;;;;;;;23.73;11.23;;;;;;;14.43;65.83;100129.56;10407317;28;20518;-74
2023/05/16 04:17:45;;;;;;;22.52;11.35;;;;;;;14.37;66.00;100126.84;10428536;28;20076;-74
2023/05/16 04:22:46;;;;;;;20.25;10.48;;;;;;;14.44;65.67;100131.22;10423912;28;20133;-72
2023/05/16 04:27:48;;;;;;;17.85;8.90;;;;;;;14.56;65.62;100136.03;10410904;28;20045;-75
2023/05/16 04:32:49;;;;;;;17.23;9.43;;;;;;;14.59;65.57;100144.59;10394590;28;20085;-74
2023/05/16 04:37:51;;;;;;;15.57;8.73;;;;;;;14.72;65.39;100138.34;10410955;28;20045;-74
2023/05/16 04:42:53;;;;;;;13.38;7.07;;;;;;;14.79;64.65;100147.31;10402611;28;20554;-74
2023/05/16 04:47:54;;;;;;;14.48;6.28;;;;;;;14.73;65.12;100160.81;10427867;28;20045;-73
2023/05/16 04:52:56;;;;;;;12.60;6.97;;;;;;;14.90;64.62;100153.94;10424927;28;20049;-75
2023/05/16 04:57:58;;;;;;;9.48;5.22;;;;;;;14.87;64.56;100163.31;10426254;28;20103;-74
2023/05/16 05:03:00;;;;;;;7.63;4.35;;;;;;;14.71;64.93;100169.16;10425480;28;20045;-75
2023/05/16 05:08:01;;;;;;;5.95;3.92;;;;;;;14.66;64.69;100175.19;10425787;28;20108;-74
2023/05/16 05:13:04;;;;;;;6.57;2.75;;;;;;;14.72;64.86;100178.94;10431530;28;20590;-74
2023/05/16 05:18:05;;;;;;;6.93;3.42;;;;;;;14.74;64.74;100184.16;10425423;28;20504;-80
2023/05/16 05:23:07;;;;;;;4.40;2.83;;;;;;;14.88;64.54;100191.22;10433174;28;20049;-78
2023/05/16 05:28:08;;;;;;;4.60;2.50;;;;;;;14.84;64.51;100198.09;10430780;28;20057;-76
2023/05/16 05:33:10;;;;;;;6.25;2.80;;;;;;;14.85;64.40;100197.06;10416635;28;20152;-79
2023/05/16 05:38:12;;;;;;;6.57;3.35;;;;;;;14.93;64.13;100209.53;10414874;28;20458;-79
2023/05/16 05:43:14;;;;;;;5.28;2.58;;;;;;;14.80;64.30;100224.72;10403085;28;20136;-79
2023/05/16 05:48:15;;;;;;;1.85;0.90;;;;;;;14.61;63.25;100226.38;10425150;28;20447;-79
2023/05/16 05:53:17;;;;;;;1.10;0.50;;;;;;;14.59;62.53;100241.13;10419226;28;20112;-78
2023/05/16 05:58:20;;;;;;;0.32;0.30;;;;;;;14.62;62.04;100241.56;10410091;28;20558;-75
2023/05/16 06:03:21;;;;;;;0.60;0.40;;;;;;;14.46;61.99;100252.75;10428675;28;20045;-77
2023/05/16 06:08:23;;;;;;;1.25;0.47;;;;;;;14.50;61.76;100262.09;10437831;28;20152;-74
2023/05/16 06:13:24;;;;;;;0.50;0.40;;;;;;;14.56;61.92;100265.88;10439919;28;20106;-76
2023/05/16 06:18:26;;;;;;;0.85;0.40;;;;;;;14.62;61.75;100267.78;10430789;28;20137;-75
2023/05/16 06:23:27;;;;;;;1.45;0.40;;;;;;;14.64;61.70;100269.25;10426346;28;20072;-76
2023/05/16 06:28:29;;;;;;;0.98;0.43;;;;;;;14.66;61.72;100288.81;10428553;28;20052;-68
2023/05/16 06:33:30;;;;;;;0.52;0.50;;;;;;;14.74;61.37;100286.97;10412351;28;20052;-67
2023/05/16 06:38:32;;;;;;;0.50;0.40;;;;;;;14.75;61.33;100292.19;10421893;28;20492;-67
2023/05/16 06:43:33;;;;;;;1.58;0.50;;;;;;;14.76;61.25;100298.41;10418216;28;20503;-68
2023/05/16 06:48:35;;;;;;;0.80;0.38;;;;;;;14.74;61.33;100305.91;10398028;28;20044;-68
2023/05/16 06:53:36;;;;;;;3.25;0.43;;;;;;;14.75;61.57;100308.41;10420631;28;20057;-67
2023/05/16 06:58:39;;;;;;;1.70;0.20;;;;;;;14.74;61.66;100317.56;10419929;28;20057;-68
2023/05/16 07:03:40;;;;;;;1.10;0.30;;;;;;;14.68;61.42;100315.66;10420801;28;20092;-67
2023/05/16 07:08:42;;;;;;;3.13;0.20;;;;;;;14.73;61.91;100331.28;10420449;28;20126;-67
2023/05/16 07:13:43;;;;;;;0.20;0.10;;;;;;;14.67;61.86;100343.75;10418117;28;20049;-68
2023/05/16 07:18:45;;;;;;;1.40;0.10;;;;;;;14.59;61.86;100352.06;10418187;28;20491;-67
2023/05/16 07:23:46;;;;;;;0.38;0.20;;;;;;;14.55;62.31;100361.56;10418195;28;20053;-67
2023/05/16 07:28:51;;;;;;;0.22;0.10;;;;;;;14.55;61.80;100361.56;10424209;28;20041;-66
2023/05/16 07:33:53;;;;;;;0.38;0.38;;;;;;;14.24;61.82;100376.41;10419011;28;20060;-66
2023/05/16 07:38:54;;;;;;;0.20;0.10;;;;;;;14.17;61.55;100381.78;10409751;28;20057;-66
2023/05/16 07:43:55;;;;;;;1.15;0.00;;;;;;;13.94;61.63;100398.28;10416830;28;20056;-68
2023/05/16 07:48:57;;;;;;;0.15;0.10;;;;;;;13.64;62.40;100397.59;10419463;28;20048;-65
2023/05/16 07:53:58;;;;;;;0.00;0.00;;;;;;;13.61;62.58;100406.94;10415995;28;20201;-67
2023/05/16 07:59:00;;;;;;;0.10;0.10;;;;;;;13.56;62.87;100406.66;10415682;28;20053;-66
2023/05/16 08:04:01;;;;;;;0.20;0.00;;;;;;;13.66;62.50;100407.22;10414925;28;20057;-64
2023/05/16 08:09:03;;;;;;;1.27;0.10;;;;;;;13.66;62.52;100414.44;10418711;28;20057;-66
2023/05/16 08:14:05;;;;;;;0.10;0.10;;;;;;;13.69;62.37;100428.41;10420135;28;20445;-66
2023/05/16 08:19:06;;;;;;;0.90;0.00;;;;;;;13.64;62.42;100430.00;10418410;28;20054;-66
2023/05/16 08:24:09;;;;;;;0.00;0.00;;;;;;;13.69;62.14;100438.38;10415617;28;20051;-67
2023/05/16 08:29:11;;;;;;;0.30;0.10;;;;;;;13.61;62.16;100439.34;10417936;28;20051;-66
2023/05/16 08:34:12;;;;;;;0.10;0.10;;;;;;;13.68;62.61;100448.38;10420945;28;20042;-66
2023/05/16 08:39:14;;;;;;;0.13;0.10;;;;;;;13.69;62.48;100450.03;10416729;28;20429;-66
2023/05/16 08:44:20;;;;;;;0.35;0.10;;;;;;;13.79;61.79;100448.88;10423388;28;20050;-66
2023/05/16 08:49:25;;;;;;;0.25;0.15;;;;;;;13.85;61.72;100448.91;10430507;28;20785;-67
2023/05/16 08:54:27;;;;;;;1.48;0.10;;;;;;;13.67;62.48;100445.84;10426602;28;20078;-66
2023/05/16 08:59:29;;;;;;;1.45;0.20;;;;;;;13.59;62.21;100459.50;10425604;28;20041;-67
2023/05/16 09:04:30;;;;;;;0.75;0.20;;;;;;;13.61;62.05;100462.84;10423826;28;20045;-66
2023/05/16 09:09:32;;;;;;;0.35;0.20;;;;;;;13.74;61.70;100456.72;10425508;28;20068;-66
2023/05/16 09:14:34;;;;;;;1.30;0.13;;;;;;;13.88;61.26;100464.75;10425113;28;20048;-67
2023/05/16 09:19:40;;;;;;;0.32;0.20;;;;;;;14.02;60.96;100472.94;10423830;28;20646;-68
2023/05/16 09:24:44;;;;;;;3.10;0.20;;;;;;;14.08;60.91;100464.06;10406420;28;20047;-68
2023/05/16 09:29:49;;;;;;;2.92;0.30;;;;;;;14.18;60.43;100472.69;10426014;28;20049;-68
2023/05/16 09:34:53;;;;;;;0.98;0.15;;;;;;;14.22;60.16;100465.00;10434421;28;20381;-74
2023/05/16 09:39:54;;;;;;;1.98;0.30;;;;;;;14.52;59.00;100475.59;10421648;28;20045;-77
2023/05/16 09:44:56;;;;;;;1.60;0.30;;;;;;;14.75;58.33;100468.06;10429395;28;20049;-78
2023/05/16 09:49:59;;;;;;;1.08;0.30;;;;;;;14.96;57.05;100472.53;10431025;28;20128;-79
2023/05/16 09:55:03;;;;;;;1.95;0.40;;;;;;;15.10;56.57;100468.00;10439007;28;20539;-77
2023/05/16 10:00:09;;;;;;;5.57;0.60;;;;;;;15.20;56.04;100468.44;10443994;28;20107;-74
2023/05/16 10:05:10;;;;;;;1.83;0.32;;;;;;;15.18;55.99;100470.50;10436324;28;20085;-76
2023/05/16 10:10:13;;;;;;;2.13;0.40;;;;;;;15.18;55.54;100470.50;10448817;28;20132;-75
2023/05/16 10:15:14;;;;;;;6.00;0.40;;;;;;;15.09;55.06;100474.47;10432394;28;20411;-77
2023/05/16 10:20:17;;;;;;;3.83;0.50;;;;;;;14.98;54.78;100475.03;10427542;28;20056;-78
2023/05/16 10:25:31;;;;;;;4.93;0.88;;;;;;;14.99;53.50;100465.88;10427316;28;20060;-76
2023/05/16 10:30:33;;;;;;;2.97;0.73;;;;;;;15.01;52.39;100474.63;10417052;28;20044;-74
2023/05/16 10:35:35;;;;;;;4.72;0.95;;;;;;;15.08;52.30;100473.59;10438221;28;20423;-76
2023/05/16 10:40:38;;;;;;;5.13;0.73;;;;;;;15.20;51.71;100473.84;10425843;28;20055;-77
2023/05/16 10:45:40;;;;;;;3.70;0.70;;;;;;;15.26;51.73;100478.47;10431393;28;20049;-79
2023/05/16 10:50:44;;;;;;;8.02;0.43;;;;;;;15.34;51.35;100472.00;10398999;28;20171;-75
2023/05/16 10:55:57;;;;;;;4.75;0.43;;;;;;;15.29;50.88;100474.53;10415097;28;20060;-77
2023/05/16 11:01:18;;;;;;;4.65;0.40;;;;;;;15.40;49.88;100478.50;10407822;28;20174;-78
2023/05/16 11:06:21;;;;;;;4.38;0.38;;;;;;;15.40;48.96;100478.50;10410141;28;20055;-76
2023/05/16 11:11:38;;;;;;;2.80;0.45;;;;;;;15.47;48.18;100484.78;10407736;28;20451;-77
2023/05/16 11:16:40;;;;;;;5.05;0.45;;;;;;;15.54;47.55;100485.63;10421441;28;20049;-78
2023/05/16 11:22:29;;;;;;;5.65;0.40;;;;;;;15.74;47.15;100480.28;10408336;28;20528;-77
2023/05/16 11:27:45;;;;;;;2.92;0.30;;;;;;;16.17;46.32;100476.31;10325564;28;20062;-75
2023/05/16 11:32:47;;;;;;;1.88;0.30;;;;;;;16.37;46.75;100466.28;10409388;28;20073;-79
2023/05/16 11:37:49;;;;;;;4.50;1.33;;;;;;;16.70;46.13;100473.50;10401900;28;20081;-76
2023/05/16 11:42:51;;;;;;;4.20;0.63;;;;;;;17.14;45.67;100462.91;10405738;28;20059;-67
2023/05/16 11:47:52;;;;;;;8.80;0.57;;;;;;;17.39;45.13;100469.25;10422129;28;20053;-66
2023/05/16 11:52:56;;;;;;;3.88;0.30;;;;;;;17.62;44.19;100471.41;10420245;28;20049;-66
2023/05/16 11:57:58;;;;;;;2.33;0.25;;;;;;;17.78;42.38;100478.22;10426041;28;20045;-65
2023/05/16 12:03:03;;;;;;;2.35;0.55;;;;;;;18.06;40.79;100481.59;10431480;28;20041;-66
2023/05/16 12:08:09;;;;;;;4.70;0.20;;;;;;;18.52;40.31;100461.25;10434583;28;20132;-67
2023/05/16 12:13:11;;;;;;;2.50;0.70;;;;;;;18.97;38.09;100464.53;10441988;28;20474;-65
2023/05/16 12:18:13;;;;;;;1.95;0.20;;;;;;;19.41;37.09;100456.19;10450288;28;20043;-67
2023/05/16 12:23:15;;;;;;;1.83;0.30;;;;;;;19.83;36.28;100460.84;10450159;28;20157;-68
2023/05/16 12:28:16;;;;;;;1.70;0.30;;;;;;;20.31;35.92;100460.66;10433732;28;20113;-66
2023/05/16 12:33:18;;;;;;;1.00;0.10;;;;;;;20.62;35.87;100449.59;10437192;28;20055;-66
2023/05/16 12:38:20;;;;;;;4.72;0.20;;;;;;;20.37;34.96;100462.41;10430207;28;20124;-67
2023/05/16 12:43:22;;;;;;;3.10;0.40;;;;;;;20.12;34.66;100467.28;10430302;28;20047;-66
2023/05/16 12:48:31;;;;;;;3.03;0.20;;;;;;;19.87;34.66;100471.06;10432541;28;20471;-67
2023/05/16 12:53:44;;;;;;;2.72;0.28;;;;;;;20.46;33.96;100479.28;10430393;28;20106;-68
2023/05/16 12:59:02;;;;;;;4.20;0.30;;;;;;;20.84;33.28;100482.59;10428750;28;20523;-68
2023/05/16 13:04:03;;;;;;;3.13;0.30;;;;;;;21.05;32.86;100481.97;10407535;28;20060;-68
2023/05/16 13:09:06;;;;;;;3.03;0.28;;;;;;;20.47;33.34;100486.41;10429401;28;20081;-66
2023/05/16 13:14:07;;;;;;;1.58;0.22;;;;;;;21.03;32.51;100475.06;10426191;28;20049;-66
2023/05/16 13:19:09;;;;;;;1.40;0.20;;;;;;;21.33;31.88;100478.41;10429722;28;20073;-67
2023/05/16 13:24:11;;;;;;;2.67;0.20;;;;;;;21.43;31.04;100482.41;10428486;28;20107;-66
2023/05/16 13:29:13;;;;;;;3.53;0.28;;;;;;;21.78;30.49;100482.25;10428854;28;20524;-67
2023/05/16 13:34:15;;;;;;;4.15;0.20;;;;;;;22.54;30.55;100479.09;10449516;28;20045;-66
2023/05/16 13:39:17;;;;;;;2.58;0.22;;;;;;;22.28;30.56;100478.72;10428393;28;20091;-67
2023/05/16 13:44:20;;;;;;;7.78;0.30;;;;;;;22.43;30.12;100485.50;10429189;28;20320;-69
2023/05/16 13:49:22;;;;;;;1.98;0.40;;;;;;;22.54;29.93;100485.41;10450002;28;20045;-67
2023/05/16 13:54:24;;;;;;;2.28;0.30;;;;;;;21.97;30.69;100500.09;10422457;28;20053;-67
2023/05/16 13:59:25;;;;;;;2.33;0.30;;;;;;;21.65;30.10;100491.59;10449470;28;20045;-67
2023/05/16 14:04:47;;;;;;;1.08;0.20;;;;;;;21.86;29.39;100495.53;10444221;28;20117;-67
2023/05/16 14:09:50;;;;;;;1.40;0.20;;;;;;;22.24;28.22;100496.72;10436208;28;20060;-67
2023/05/16 14:14:53;;;;;;;2.88;0.20;;;;;;;22.16;28.01;100519.03;10423798;28;20045;-71
2023/05/16 14:19:55;;;;;;;7.38;0.20;;;;;;;21.76;29.00;100498.94;10434485;28;20049;-70
2023/05/16 14:24:56;;;;;;;4.65;0.30;;;;;;;21.86;29.12;100498.28;10420473;28;20049;-68
2023/05/16 14:29:58;;;;;;;3.53;0.17;;;;;;;21.19;29.33;100505.22;10411196;28;20158;-69
2023/05/16 14:35:00;;;;;;;2.13;0.15;;;;;;;20.85;29.18;100501.47;10439141;28;20049;-68
2023/05/16 14:40:01;;;;;;;2.33;1.17;;;;;;;22.29;28.04;100507.75;10418027;28;20130;-66
2023/05/16 14:45:03;;;;;;;2.25;0.20;;;;;;;23.26;26.73;100507.44;10404481;28;20060;-66
2023/05/16 14:50:05;;;;;;;2.17;0.10;;;;;;;23.45;25.94;100511.53;10419045;28;20048;-67
2023/05/16 14:55:07;;;;;;;2.67;0.60;;;;;;;23.04;26.50;100513.78;10423707;28;20084;-66
2023/05/16 15:00:10;;;;;;;3.50;0.50;;;;;;;22.12;27.28;100520.63;10418044;28;20048;-65
2023/05/16 15:05:11;;;;;;;1.80;0.20;;;;;;;22.12;27.16;100528.81;10420219;28;20056;-68
2023/05/16 15:10:13;;;;;;;5.07;0.30;;;;;;;22.21;27.74;100532.78;10420052;28;20124;-67
2023/05/16 15:15:14;;;;;;;3.33;0.20;;;;;;;21.73;28.23;100529.50;10420293;28;20057;-67
2023/05/16 15:20:17;;;;;;;2.50;0.10;;;;;;;21.31;28.60;100526.22;10424583;28;20059;-66
2023/05/16 15:25:21;;;;;;;3.00;0.20;;;;;;;20.44;28.17;100525.13;10421763;28;20052;-66
2023/05/16 15:30:22;;;;;;;3.17;0.20;;;;;;;20.06;27.85;100548.19;10402900;28;20057;-66
2023/05/16 15:35:24;;;;;;;4.03;0.13;;;;;;;19.50;28.11;100535.78;10418114;28;20046;-66
2023/05/16 15:40:27;;;;;;;0.63;0.10;;;;;;;19.55;27.94;100528.59;10418513;28;20164;-66
2023/05/16 15:45:28;;;;;;;3.38;0.20;;;;;;;19.70;28.40;100532.78;10415686;28;20706;-64
2023/05/16 15:50:30;;;;;;;1.25;0.20;;;;;;;20.11;27.70;100522.97;10425972;28;20094;-67
2023/05/16 15:55:32;;;;;;;2.22;0.30;;;;;;;20.46;28.17;100523.00;10442875;28;20111;-66
2023/05/16 16:00:34;;;;;;;1.98;0.10;;;;;;;21.11;27.26;100526.59;10432843;28;20049;-64
2023/05/16 16:05:36;;;;;;;2.92;0.50;;;;;;;21.35;27.34;100521.91;10430399;28;20147;-65
2023/05/16 16:10:37;;;;;;;2.20;0.17;;;;;;;21.33;27.73;100511.22;10443907;28;20087;-65
2023/05/16 16:15:40;;;;;;;1.42;0.20;;;;;;;22.13;27.11;100509.38;10444362;28;20093;-67
2023/05/16 16:20:42;;;;;;;2.50;0.20;;;;;;;22.34;26.71;100505.09;10444489;28;20088;-67
2023/05/16 16:25:44;;;;;;;3.38;0.20;;;;;;;23.09;26.23;100505.63;10426405;28;20053;-67
2023/05/16 16:30:46;;;;;;;1.85;0.22;;;;;;;23.46;26.09;100504.09;10424349;28;20599;-67
2023/05/16 16:35:47;;;;;;;2.17;0.30;;;;;;;23.49;26.08;100504.41;10412711;28;20049;-68
2023/05/16 16:40:49;;;;;;;2.22;0.20;;;;;;;23.13;26.63;100511.44;10444655;28;20080;-69
2023/05/16 16:45:50;;;;;;;3.28;0.20;;;;;;;22.75;26.88;100516.66;10444326;28;20049;-67
2023/05/16 16:50:52;;;;;;;3.90;0.30;;;;;;;22.34;26.91;100516.06;10444845;28;20081;-66
2023/05/16 16:55:54;;;;;;;1.25;0.20;;;;;;;22.29;27.34;100502.28;10425083;28;20065;-66
2023/05/16 17:00:56;;;;;;;1.80;0.52;;;;;;;22.25;27.44;100505.78;10445917;28;20052;-67
2023/05/16 17:05:57;;;;;;;2.03;0.20;;;;;;;22.07;27.62;100512.31;10453069;28;20041;-65
2023/05/16 17:10:59;;;;;;;2.47;0.20;;;;;;;22.22;27.45;100515.28;10451329;28;20041;-66
2023/05/16 17:16:00;;;;;;;1.67;0.20;;;;;;;21.68;28.24;100513.00;10419955;28;20116;-65
2023/05/16 17:21:02;;;;;;;1.65;0.20;;;;;;;21.05;28.45;100522.09;10409591;28;20069;-66
2023/05/16 17:26:03;;;;;;;3.80;0.30;;;;;;;20.95;29.28;100528.19;10423507;28;20072;-66
2023/05/16 17:31:05;;;;;;;1.83;0.20;;;;;;;20.94;29.35;100534.75;10426347;28;20140;-67
2023/05/16 17:36:06;;;;;;;2.15;0.10;;;;;;;21.24;28.50;100533.72;10422234;28;20049;-68
2023/05/16 17:41:08;;;;;;;1.23;0.20;;;;;;;21.52;28.88;100535.66;10418887;28;20056;-67
2023/05/16 17:46:10;;;;;;;3.13;0.30;;;;;;;21.58;28.45;100541.00;10419874;28;20060;-66
2023/05/16 17:51:11;;;;;;;1.75;0.32;;;;;;;22.08;28.18;100546.84;10416656;28;20049;-63
2023/05/16 17:56:13;;;;;;;2.28;0.30;;;;;;;22.23;27.94;100541.59;10419365;28;20069;-65
2023/05/16 18:01:14;;;;;;;1.52;0.30;;;;;;;21.35;28.28;100552.81;10419183;28;20134;-66
2023/05/16 18:06:16;;;;;;;0.40;0.20;;;;;;;20.35;29.27;100564.75;10412056;28;20056;-67
2023/05/16 18:11:17;;;;;;;1.48;0.40;;;;;;;19.54;29.98;100575.16;10419109;28;20053;-66
2023/05/16 18:16:19;;;;;;;2.60;0.20;;;;;;;18.92;30.38;100578.00;10410808;28;20050;-66
2023/05/16 18:21:20;;;;;;;1.70;0.22;;;;;;;18.31;31.21;100580.38;10417735;28;20056;-65
2023/05/16 18:26:22;;;;;;;4.72;0.25;;;;;;;17.80;32.23;100587.59;10418118;28;20041;-65
2023/05/16 18:31:23;;;;;;;3.70;0.30;;;;;;;17.61;32.55;100600.25;10419624;28;20044;-65
2023/05/16 18:36:25;;;;;;;1.15;0.20;;;;;;;17.31;33.04;100596.41;10418938;28;20046;-66
2023/05/16 18:41:26;;;;;;;3.17;0.22;;;;;;;17.00;33.94;100608.81;10415272;28;20076;-65
2023/05/16 18:46:28;;;;;;;6.25;0.68;;;;;;;16.77;34.47;100609.25;10411710;28;20041;-65
2023/05/16 18:51:29;;;;;;;2.20;0.20;;;;;;;16.31;35.45;100610.91;10421201;28;20180;-69
2023/05/16 18:56:31;;;;;;;1.20;0.20;;;;;;;16.12;35.92;100622.56;10484895;23;20045;-79
2023/05/16 19:13:51;;;;;;;2.70;0.20;;;;;;;15.50;37.50;100646.94;10836174;22;20098;-92
2023/05/16 19:18:57;;;;;;;2.05;0.20;;;;;;;15.37;37.90;100657.72;10421829;28;20033;-93
2023/05/16 19:24:02;;;;;;;8.40;1.30;;;;;;;15.23;38.62;100667.63;10490583;23;20048;-72
2023/05/16 19:29:06;;;;;;;3.33;0.28;;;;;;;15.00;38.70;100668.69;10829101;22;21381;-75
2023/05/16 19:39:37;;;;;;;2.92;0.20;;;;;;;14.62;39.29;100685.28;10268730;28;20038;-72
2023/05/16 19:44:39;;;;;;;1.83;0.30;;;;;;;14.55;39.40;100691.63;10261299;28;20059;-69
2023/05/16 19:49:40;;;;;;;1.88;1.77;;;;;;;14.39;39.93;100701.66;10266331;28;20053;-70
2023/05/16 19:54:42;;;;;;;1.83;0.32;;;;;;;14.30;39.93;100716.34;10296404;28;20054;-71
2023/05/16 19:59:44;;;;;;;2.75;0.38;;;;;;;14.14;40.47;100720.13;10294487;28;20050;-71
2023/05/16 20:04:45;;;;;;;1.77;0.30;;;;;;;14.04;40.80;100727.66;10294458;28;20046;-71
2023/05/16 20:09:46;;;;;;;2.30;0.40;;;;;;;13.88;41.51;100740.38;10314291;28;20046;-68
2023/05/16 20:14:48;;;;;;;2.55;0.40;;;;;;;13.88;41.53;100743.09;10314307;28;20133;-71
2023/05/16 20:19:49;;;;;;;0.88;0.22;;;;;;;13.77;41.71;100738.16;10300314;28;20367;-70
2023/05/16 20:24:51;;;;;;;2.53;0.40;;;;;;;13.69;42.00;100762.56;10291034;28;20046;-70
2023/05/16 20:29:53;;;;;;;1.27;0.30;;;;;;;13.61;42.33;100771.59;10297645;28;20053;-70
2023/05/16 20:34:54;;;;;;;2.72;0.40;;;;;;;13.61;42.15;100771.59;10298280;28;20042;-71
2023/05/16 20:39:56;;;;;;;2.60;0.40;;;;;;;13.54;42.45;100776.06;10352932;28;20056;-71
2023/05/16 20:44:57;;;;;;;6.53;0.30;;;;;;;13.49;42.69;100789.28;10379170;28;20066;-70
2023/05/16 20:49:59;;;;;;;2.45;0.30;;;;;;;13.43;43.31;100795.44;10388556;28;20046;-72
2023/05/16 20:55:00;;;;;;;3.45;0.47;;;;;;;13.38;43.51;100800.53;10386137;28;20053;-70
2023/05/16 21:00:02;;;;;;;1.80;0.30;;;;;;;13.37;43.49;100798.84;10385822;28;20076;-70
2023/05/16 21:05:04;;;;;;;3.25;0.32;;;;;;;13.28;43.90;100798.91;10380098;28;20404;-71
2023/05/16 21:10:25;;;;;;;5.40;0.60;;;;;;;13.13;44.56;100813.38;10381655;28;20049;-70
2023/05/16 21:15:26;;;;;;;3.20;0.70;;;;;;;13.07;44.77;100806.84;10381229;28;20054;-71
2023/05/16 21:20:28;;;;;;;1.52;0.30;;;;;;;12.96;45.06;100810.81;10380114;28;20057;-70
2023/05/16 21:25:30;;;;;;;7.50;1.52;;;;;;;12.95;45.09;100821.78;10364166;28;20052;-69
2023/05/16 21:30:32;;;;;;;5.45;0.40;;;;;;;12.84;45.48;100820.34;10367581;28;20053;-69
2023/05/16 21:35:33;;;;;;;4.35;0.60;;;;;;;12.72;46.16;100828.00;10379955;28;20148;-70
2023/05/16 21:40:35;;;;;;;4.95;0.28;;;;;;;12.63;46.46;100837.16;10385706;28;20407;-70
2023/05/16 21:45:36;;;;;;;1.67;0.30;;;;;;;12.53;47.08;100833.84;10379770;28;20531;-71
2023/05/16 21:50:38;;;;;;;3.03;0.32;;;;;;;12.44;46.96;100831.22;10381671;28;20067;-72
2023/05/16 21:55:39;;;;;;;3.85;0.38;;;;;;;12.38;47.21;100840.00;10379450;28;20100;-71
2023/05/16 22:00:41;;;;;;;2.75;0.40;;;;;;;12.28;47.79;100840.22;10383051;28;20404;-71
2023/05/16 22:05:42;;;;;;;4.30;0.30;;;;;;;12.33;47.84;100844.25;10380947;28;20057;-69
2023/05/16 22:10:44;;;;;;;2.30;0.80;;;;;;;12.27;47.89;100846.59;10379645;28;20046;-68
2023/05/16 22:15:45;;;;;;;0.95;0.40;;;;;;;12.10;48.21;100848.53;10382256;28;20063;-69
2023/05/16 22:21:05;;;;;;;5.38;0.80;;;;;;;11.98;48.80;100839.13;10378960;28;20053;-71
2023/05/16 22:26:06;;;;;;;5.88;0.40;;;;;;;11.93;48.84;100843.34;10380809;28;20067;-71
2023/05/16 22:31:08;;;;;;;3.03;0.40;;;;;;;11.96;49.28;100849.22;10379867;28;20050;-72
2023/05/16 22:36:09;;;;;;;2.10;0.52;;;;;;;12.03;49.27;100852.94;10381985;28;20064;-69
2023/05/16 22:41:10;;;;;;;5.78;1.13;;;;;;;11.95;49.64;100855.66;10382636;28;20067;-71
2023/05/16 22:46:14;;;;;;;1.75;0.30;;;;;;;11.81;49.64;100845.53;10381306;28;20081;-72
2023/05/16 22:51:15;;;;;;;5.38;0.60;;;;;;;11.74;49.99;100845.38;10376026;28;20137;-72
2023/05/16 22:56:16;;;;;;;2.20;0.40;;;;;;;11.73;50.12;100846.41;10383269;28;20061;-72
2023/05/16 23:01:18;;;;;;;6.43;1.40;;;;;;;11.68;50.61;100849.59;10383997;28;20394;-70
2023/05/16 23:06:19;;;;;;;2.58;0.60;;;;;;;11.68;50.40;100854.16;10376758;28;20053;-72
2023/05/16 23:11:21;;;;;;;3.17;0.73;;;;;;;11.67;50.67;100865.94;10376496;28;20053;-72
2023/05/16 23:16:23;;;;;;;6.35;0.70;;;;;;;11.59;50.90;100865.94;10384205;28;20499;-72
2023/05/16 23:21:24;;;;;;;4.75;0.60;;;;;;;11.57;51.36;100862.56;10382638;28;20413;-73
2023/05/16 23:26:26;;;;;;;2.47;0.57;;;;;;;11.54;51.17;100868.31;10377631;28;20136;-71